Airfield :
LOGIN :

Register | Disclaimer

   EN    FR    IT 

 










Legend :    VFR   Marginal VFR   IFR   Intensive IFR   Very Intensive IFR
Visi :
Ceiling :
>= 8 km
>= 3000ft
5 to 8 km
1000 to 3000 ft
1500m to 5 km
500 to 1000 ft
800 to 1500m
200 to 500 ft
< 800m
< 200 ft
Symbols :   Thunderstorms  Fog  Heavy snow  Heavy precipitations  Wind > 20 kt
SIGMETs :     Misc.  Thunderstorms  Icing  Turbulence  Mountain Waves  Volcanic Ashes







- Airport Elevation : 3 ft
- IATA code : LWR


EHLW - Leuuwarden Air Base

CURRENT METAR :
  • 170055Z AUTO 26002KT 9999 BKN024 OVC027 15/13 Q1014 REDZ WHT RMK R23

EXPIRED METARs :
  • 170025Z AUTO 23003KT 9999 -DZ FEW015CB OVC020 15/13 Q1014 REDZ WHT RMK R23
  • 170018Z AUTO 25003KT 210V270 9999 DZRA FEW015CB OVC019 15/14 Q1014 WHT RMK R23
  • 162355Z AUTO 25004KT 220V300 9999 FEW015CB OVC017 15/14 Q1015 WHT RMK R23
  • 162326Z AUTO 27007KT 230V300 9999 OVC015 16/14 Q1015 WHT RMK R23
  • 162325Z AUTO 26008KT 230V300 9999 SCT012 OVC015 16/14 Q1015 GRN RMK R23
  • 162257Z AUTO 20004KT 150V230 9999 -DZRA SCT028 BKN032 BKN038 16/14 Q1014 BLU RMK R23
  • 162313Z AUTO 28009KT 220V330 9999 -DZRA FEW009 BKN010 BKN016 16/14 Q1015 GRN RMK R23
  • 162255Z AUTO 19003KT 150V210 9999 FEW032 SCT038 BKN095 16/14 Q1014 BLU RMK R23
  • 162225Z AUTO 19004KT 160V220 9999 SCT096 OVC110 16/14 Q1014 BLU RMK R23

Expired Forecast.
No reported NOTAMs for that airfield.



MET'MAP, your aeronautical weather chart ! - Copyright ORBIFLY December 2007 - Disclaimer

ORBIFLY MET'MAP TEAM :

Programming & Development : Alexandra Zaïnal
Concept & Development : Baudouin d'Aumeries
Co-Development & Prog : Marc-Olivier Méhu
Technical & hardware support : Manuel Goepfert

Contact : metmap@orbifly.com




SOURCES & CREDITS :

   NOAA